sensor_id;sensor_type;location;lat;lon;timestamp;temperature;humidity
15355;DHT22;7777;52.254;9.618;2024-02-28T00:00:05;4.90;99.90
15355;DHT22;7777;52.254;9.618;2024-02-28T00:02:31;4.80;99.90
15355;DHT22;7777;52.254;9.618;2024-02-28T00:04:57;4.80;99.90
15355;DHT22;7777;52.254;9.618;2024-02-28T00:07:25;4.70;99.90
15355;DHT22;7777;52.254;9.618;2024-02-28T00:09:52;4.70;99.90
15355;DHT22;7777;52.254;9.618;2024-02-28T00:12:23;4.60;99.90
15355;DHT22;7777;52.254;9.618;2024-02-28T00:14:52;4.50;99.90
15355;DHT22;7777;52.254;9.618;2024-02-28T00:17:18;4.50;99.90
15355;DHT22;7777;52.254;9.618;2024-02-28T00:19:43;4.50;99.90
15355;DHT22;7777;52.254;9.618;2024-02-28T00:22:09;4.40;99.90
15355;DHT22;7777;52.254;9.618;2024-02-28T00:24:35;4.30;99.90
15355;DHT22;7777;52.254;9.618;2024-02-28T00:27:01;4.30;99.90
15355;DHT22;7777;52.254;9.618;2024-02-28T00:29:27;4.20;99.90
15355;DHT22;7777;52.254;9.618;2024-02-28T00:31:52;4.10;99.90
15355;DHT22;7777;52.254;9.618;2024-02-28T00:34:20;4.10;99.90
15355;DHT22;7777;52.254;9.618;2024-02-28T00:36:46;4.00;99.90
15355;DHT22;7777;52.254;9.618;2024-02-28T00:39:12;4.00;99.90
15355;DHT22;7777;52.254;9.618;2024-02-28T00:41:40;4.00;99.90
15355;DHT22;7777;52.254;9.618;2024-02-28T00:44:05;3.90;99.90
15355;DHT22;7777;52.254;9.618;2024-02-28T00:46:31;3.80;99.90
15355;DHT22;7777;52.254;9.618;2024-02-28T00:48:59;3.80;99.90
15355;DHT22;7777;52.254;9.618;2024-02-28T00:51:25;3.70;99.90
15355;DHT22;7777;52.254;9.618;2024-02-28T00:53:50;3.70;99.90
15355;DHT22;7777;52.254;9.618;2024-02-28T00:56:16;3.70;99.90
15355;DHT22;7777;52.254;9.618;2024-02-28T00:58:46;3.60;99.90
15355;DHT22;7777;52.254;9.618;2024-02-28T01:01:12;3.50;99.90
15355;DHT22;7777;52.254;9.618;2024-02-28T01:03:38;3.50;99.90
15355;DHT22;7777;52.254;9.618;2024-02-28T01:06:04;3.50;99.90
15355;DHT22;7777;52.254;9.618;2024-02-28T01:08:30;3.40;99.90
15355;DHT22;7777;52.254;9.618;2024-02-28T01:10:56;3.30;99.90
15355;DHT22;7777;52.254;9.618;2024-02-28T01:13:23;3.30;99.90
15355;DHT22;7777;52.254;9.618;2024-02-28T01:15:48;3.20;99.90
15355;DHT22;7777;52.254;9.618;2024-02-28T01:18:14;3.20;99.90
15355;DHT22;7777;52.254;9.618;2024-02-28T01:20:40;3.10;99.90
15355;DHT22;7777;52.254;9.618;2024-02-28T01:23:06;3.10;99.90
15355;DHT22;7777;52.254;9.618;2024-02-28T01:25:31;3.00;99.90
15355;DHT22;7777;52.254;9.618;2024-02-28T01:27:57;2.90;99.90
15355;DHT22;7777;52.254;9.618;2024-02-28T01:30:26;2.90;99.90
15355;DHT22;7777;52.254;9.618;2024-02-28T01:32:53;2.80;99.90
15355;DHT22;7777;52.254;9.618;2024-02-28T01:35:18;2.80;99.90
15355;DHT22;7777;52.254;9.618;2024-02-28T01:37:44;2.70;99.90
15355;DHT22;7777;52.254;9.618;2024-02-28T01:40:10;2.70;99.90
15355;DHT22;7777;52.254;9.618;2024-02-28T01:42:37;2.70;99.90
15355;DHT22;7777;52.254;9.618;2024-02-28T01:45:03;2.60;99.90
15355;DHT22;7777;52.254;9.618;2024-02-28T01:47:29;2.60;99.90
15355;DHT22;7777;52.254;9.618;2024-02-28T01:49:56;2.50;99.90
15355;DHT22;7777;52.254;9.618;2024-02-28T01:52:22;2.50;99.90
15355;DHT22;7777;52.254;9.618;2024-02-28T01:54:48;2.40;99.90
15355;DHT22;7777;52.254;9.618;2024-02-28T01:57:14;2.40;99.90
15355;DHT22;7777;52.254;9.618;2024-02-28T01:59:42;2.40;99.90
15355;DHT22;7777;52.254;9.618;2024-02-28T02:02:08;2.40;99.90
15355;DHT22;7777;52.254;9.618;2024-02-28T02:04:34;2.30;99.90
15355;DHT22;7777;52.254;9.618;2024-02-28T02:07:00;2.30;99.90
15355;DHT22;7777;52.254;9.618;2024-02-28T02:09:26;2.20;99.90
15355;DHT22;7777;52.254;9.618;2024-02-28T02:11:53;2.20;99.90
15355;DHT22;7777;52.254;9.618;2024-02-28T02:14:19;2.10;99.90
15355;DHT22;7777;52.254;9.618;2024-02-28T02:16:44;2.10;99.90
15355;DHT22;7777;52.254;9.618;2024-02-28T02:19:10;2.10;99.90
15355;DHT22;7777;52.254;9.618;2024-02-28T02:21:49;2.00;99.90
15355;DHT22;7777;52.254;9.618;2024-02-28T02:24:16;2.00;99.90
15355;DHT22;7777;52.254;9.618;2024-02-28T02:26:42;2.00;99.90
15355;DHT22;7777;52.254;9.618;2024-02-28T02:29:10;2.00;99.90
15355;DHT22;7777;52.254;9.618;2024-02-28T02:31:36;2.00;99.90
15355;DHT22;7777;52.254;9.618;2024-02-28T02:34:02;1.90;99.90
15355;DHT22;7777;52.254;9.618;2024-02-28T02:36:27;1.90;99.90
15355;DHT22;7777;52.254;9.618;2024-02-28T02:38:53;1.90;99.90
15355;DHT22;7777;52.254;9.618;2024-02-28T02:41:19;1.80;99.90
15355;DHT22;7777;52.254;9.618;2024-02-28T02:43:45;1.80;99.90
15355;DHT22;7777;52.254;9.618;2024-02-28T02:46:11;1.80;99.90
15355;DHT22;7777;52.254;9.618;2024-02-28T02:48:36;1.80;99.90
15355;DHT22;7777;52.254;9.618;2024-02-28T02:51:02;1.80;99.90
15355;DHT22;7777;52.254;9.618;2024-02-28T02:53:29;1.80;99.90
15355;DHT22;7777;52.254;9.618;2024-02-28T02:55:55;1.70;99.90
15355;DHT22;7777;52.254;9.618;2024-02-28T02:58:21;1.70;99.90
15355;DHT22;7777;52.254;9.618;2024-02-28T03:00:47;1.70;99.90
15355;DHT22;7777;52.254;9.618;2024-02-28T03:03:13;1.70;99.90
15355;DHT22;7777;52.254;9.618;2024-02-28T03:05:38;1.70;99.90
15355;DHT22;7777;52.254;9.618;2024-02-28T03:08:06;1.70;99.90
15355;DHT22;7777;52.254;9.618;2024-02-28T03:10:32;1.70;99.90
15355;DHT22;7777;52.254;9.618;2024-02-28T03:12:57;1.70;99.90
15355;DHT22;7777;52.254;9.618;2024-02-28T03:15:23;1.70;99.90
15355;DHT22;7777;52.254;9.618;2024-02-28T03:17:49;1.70;99.90
15355;DHT22;7777;52.254;9.618;2024-02-28T03:20:15;1.70;99.90
15355;DHT22;7777;52.254;9.618;2024-02-28T03:22:40;1.60;99.90
15355;DHT22;7777;52.254;9.618;2024-02-28T03:25:06;1.70;99.90
15355;DHT22;7777;52.254;9.618;2024-02-28T03:27:33;1.60;99.90
15355;DHT22;7777;52.254;9.618;2024-02-28T03:29:59;1.70;99.90
15355;DHT22;7777;52.254;9.618;2024-02-28T03:32:25;1.60;99.90
15355;DHT22;7777;52.254;9.618;2024-02-28T03:34:50;1.70;99.90
15355;DHT22;7777;52.254;9.618;2024-02-28T03:37:16;1.60;99.90
15355;DHT22;7777;52.254;9.618;2024-02-28T03:39:42;1.60;99.90
15355;DHT22;7777;52.254;9.618;2024-02-28T03:42:09;1.60;99.90
15355;DHT22;7777;52.254;9.618;2024-02-28T03:44:35;1.60;99.90
15355;DHT22;7777;52.254;9.618;2024-02-28T03:47:00;1.60;99.90
15355;DHT22;7777;52.254;9.618;2024-02-28T03:49:26;1.60;99.90
15355;DHT22;7777;52.254;9.618;2024-02-28T03:51:52;1.60;99.90
15355;DHT22;7777;52.254;9.618;2024-02-28T03:54:18;1.60;99.90
15355;DHT22;7777;52.254;9.618;2024-02-28T03:56:43;1.60;99.90
15355;DHT22;7777;52.254;9.618;2024-02-28T03:59:09;1.50;99.90
15355;DHT22;7777;52.254;9.618;2024-02-28T04:01:35;1.50;99.90
15355;DHT22;7777;52.254;9.618;2024-02-28T04:04:01;1.60;99.90
15355;DHT22;7777;52.254;9.618;2024-02-28T04:06:27;1.50;99.90
15355;DHT22;7777;52.254;9.618;2024-02-28T04:08:53;1.50;99.90
15355;DHT22;7777;52.254;9.618;2024-02-28T04:11:20;1.50;99.90
15355;DHT22;7777;52.254;9.618;2024-02-28T04:13:46;1.40;99.90
15355;DHT22;7777;52.254;9.618;2024-02-28T04:16:12;1.50;99.90
15355;DHT22;7777;52.254;9.618;2024-02-28T04:18:38;1.40;99.90
15355;DHT22;7777;52.254;9.618;2024-02-28T04:21:05;1.40;99.90
15355;DHT22;7777;52.254;9.618;2024-02-28T04:23:31;1.40;99.90
15355;DHT22;7777;52.254;9.618;2024-02-28T04:25:56;1.40;99.90
15355;DHT22;7777;52.254;9.618;2024-02-28T04:28:22;1.40;99.90
15355;DHT22;7777;52.254;9.618;2024-02-28T04:30:48;1.40;99.90
15355;DHT22;7777;52.254;9.618;2024-02-28T04:33:15;1.30;99.90
15355;DHT22;7777;52.254;9.618;2024-02-28T04:35:41;1.30;99.90
15355;DHT22;7777;52.254;9.618;2024-02-28T04:38:07;1.30;99.90
15355;DHT22;7777;52.254;9.618;2024-02-28T04:40:32;1.30;99.90
15355;DHT22;7777;52.254;9.618;2024-02-28T04:42:58;1.30;99.90
15355;DHT22;7777;52.254;9.618;2024-02-28T04:45:24;1.30;99.90
15355;DHT22;7777;52.254;9.618;2024-02-28T04:47:52;1.30;99.90
15355;DHT22;7777;52.254;9.618;2024-02-28T04:50:19;1.30;99.90
15355;DHT22;7777;52.254;9.618;2024-02-28T04:52:45;1.30;99.90
15355;DHT22;7777;52.254;9.618;2024-02-28T04:55:10;1.30;99.90
15355;DHT22;7777;52.254;9.618;2024-02-28T04:57:37;1.30;99.90
15355;DHT22;7777;52.254;9.618;2024-02-28T05:00:04;1.30;99.90
15355;DHT22;7777;52.254;9.618;2024-02-28T05:02:30;1.30;99.90
15355;DHT22;7777;52.254;9.618;2024-02-28T05:04:56;1.30;99.90
15355;DHT22;7777;52.254;9.618;2024-02-28T05:07:24;1.20;99.90
15355;DHT22;7777;52.254;9.618;2024-02-28T05:09:50;1.20;99.90
15355;DHT22;7777;52.254;9.618;2024-02-28T05:12:16;1.20;99.90
15355;DHT22;7777;52.254;9.618;2024-02-28T05:14:41;1.20;99.90
15355;DHT22;7777;52.254;9.618;2024-02-28T05:17:08;1.20;99.90
15355;DHT22;7777;52.254;9.618;2024-02-28T05:19:34;1.20;99.90
15355;DHT22;7777;52.254;9.618;2024-02-28T05:22:00;1.20;99.90
15355;DHT22;7777;52.254;9.618;2024-02-28T05:24:26;1.20;99.90
15355;DHT22;7777;52.254;9.618;2024-02-28T05:26:52;1.20;99.90
15355;DHT22;7777;52.254;9.618;2024-02-28T05:29:18;1.20;99.90
15355;DHT22;7777;52.254;9.618;2024-02-28T05:31:44;1.20;99.90
15355;DHT22;7777;52.254;9.618;2024-02-28T05:34:10;1.20;99.90
15355;DHT22;7777;52.254;9.618;2024-02-28T05:36:36;1.20;99.90
15355;DHT22;7777;52.254;9.618;2024-02-28T05:39:02;1.10;99.90
15355;DHT22;7777;52.254;9.618;2024-02-28T05:41:30;1.20;99.90
15355;DHT22;7777;52.254;9.618;2024-02-28T05:43:56;1.10;99.90
15355;DHT22;7777;52.254;9.618;2024-02-28T05:46:22;1.10;99.90
15355;DHT22;7777;52.254;9.618;2024-02-28T05:48:49;1.10;99.90
15355;DHT22;7777;52.254;9.618;2024-02-28T05:51:15;1.10;99.90
15355;DHT22;7777;52.254;9.618;2024-02-28T05:53:43;1.10;99.90
15355;DHT22;7777;52.254;9.618;2024-02-28T05:56:09;1.10;99.90
15355;DHT22;7777;52.254;9.618;2024-02-28T05:58:46;1.10;99.90
15355;DHT22;7777;52.254;9.618;2024-02-28T06:01:15;1.10;99.90
15355;DHT22;7777;52.254;9.618;2024-02-28T06:03:48;1.10;99.90
15355;DHT22;7777;52.254;9.618;2024-02-28T06:06:14;1.10;99.90
15355;DHT22;7777;52.254;9.618;2024-02-28T06:08:41;1.10;99.90
15355;DHT22;7777;52.254;9.618;2024-02-28T06:11:07;1.10;99.90
15355;DHT22;7777;52.254;9.618;2024-02-28T06:13:33;1.00;99.90
15355;DHT22;7777;52.254;9.618;2024-02-28T06:16:00;1.00;99.90
15355;DHT22;7777;52.254;9.618;2024-02-28T06:18:26;1.00;99.90
15355;DHT22;7777;52.254;9.618;2024-02-28T06:20:56;1.00;99.90
15355;DHT22;7777;52.254;9.618;2024-02-28T06:23:24;1.00;99.90
15355;DHT22;7777;52.254;9.618;2024-02-28T06:25:50;1.00;99.90
15355;DHT22;7777;52.254;9.618;2024-02-28T06:28:17;1.00;99.90
15355;DHT22;7777;52.254;9.618;2024-02-28T06:30:43;1.00;99.90
15355;DHT22;7777;52.254;9.618;2024-02-28T06:33:15;1.00;99.90
15355;DHT22;7777;52.254;9.618;2024-02-28T06:35:41;1.00;99.90
15355;DHT22;7777;52.254;9.618;2024-02-28T06:38:08;1.00;99.90
15355;DHT22;7777;52.254;9.618;2024-02-28T06:40:34;1.10;99.90
15355;DHT22;7777;52.254;9.618;2024-02-28T06:43:00;1.10;99.90
15355;DHT22;7777;52.254;9.618;2024-02-28T06:45:27;1.10;99.90
15355;DHT22;7777;52.254;9.618;2024-02-28T06:47:53;1.10;99.90
15355;DHT22;7777;52.254;9.618;2024-02-28T06:50:19;1.10;99.90
15355;DHT22;7777;52.254;9.618;2024-02-28T06:52:45;1.20;99.90
15355;DHT22;7777;52.254;9.618;2024-02-28T06:55:11;1.20;99.90
15355;DHT22;7777;52.254;9.618;2024-02-28T06:57:37;1.20;99.90
15355;DHT22;7777;52.254;9.618;2024-02-28T07:00:08;1.20;99.90
15355;DHT22;7777;52.254;9.618;2024-02-28T07:02:35;1.30;99.90
15355;DHT22;7777;52.254;9.618;2024-02-28T07:05:02;1.30;99.90
15355;DHT22;7777;52.254;9.618;2024-02-28T07:07:30;1.30;99.90
15355;DHT22;7777;52.254;9.618;2024-02-28T07:09:57;1.30;99.90
15355;DHT22;7777;52.254;9.618;2024-02-28T07:12:22;1.40;99.90
15355;DHT22;7777;52.254;9.618;2024-02-28T07:14:50;1.40;99.90
15355;DHT22;7777;52.254;9.618;2024-02-28T07:17:15;1.40;99.90
15355;DHT22;7777;52.254;9.618;2024-02-28T07:19:41;1.50;99.90
15355;DHT22;7777;52.254;9.618;2024-02-28T07:22:07;1.50;99.90
15355;DHT22;7777;52.254;9.618;2024-02-28T07:24:32;1.60;99.90
15355;DHT22;7777;52.254;9.618;2024-02-28T07:26:58;1.60;99.90
15355;DHT22;7777;52.254;9.618;2024-02-28T07:29:24;1.60;99.90
15355;DHT22;7777;52.254;9.618;2024-02-28T07:31:50;1.70;99.90
15355;DHT22;7777;52.254;9.618;2024-02-28T07:34:15;1.70;99.90
15355;DHT22;7777;52.254;9.618;2024-02-28T07:36:41;1.80;99.90
15355;DHT22;7777;52.254;9.618;2024-02-28T07:39:07;1.80;99.90
15355;DHT22;7777;52.254;9.618;2024-02-28T07:41:41;1.80;99.90
15355;DHT22;7777;52.254;9.618;2024-02-28T07:44:07;1.90;99.90
15355;DHT22;7777;52.254;9.618;2024-02-28T07:46:34;1.90;99.90
15355;DHT22;7777;52.254;9.618;2024-02-28T07:49:01;2.00;99.90
15355;DHT22;7777;52.254;9.618;2024-02-28T07:51:28;2.00;99.90
15355;DHT22;7777;52.254;9.618;2024-02-28T07:53:54;2.10;99.90
15355;DHT22;7777;52.254;9.618;2024-02-28T07:56:21;2.10;99.90
15355;DHT22;7777;52.254;9.618;2024-02-28T07:58:47;2.20;99.90
15355;DHT22;7777;52.254;9.618;2024-02-28T08:01:12;2.20;99.90
15355;DHT22;7777;52.254;9.618;2024-02-28T08:03:38;2.30;99.90
15355;DHT22;7777;52.254;9.618;2024-02-28T08:06:04;2.40;99.90
15355;DHT22;7777;52.254;9.618;2024-02-28T08:08:31;2.40;99.90
15355;DHT22;7777;52.254;9.618;2024-02-28T08:10:57;2.50;99.90
15355;DHT22;7777;52.254;9.618;2024-02-28T08:13:23;2.50;99.90
15355;DHT22;7777;52.254;9.618;2024-02-28T08:15:54;2.60;99.90
15355;DHT22;7777;52.254;9.618;2024-02-28T08:18:20;2.60;99.90
15355;DHT22;7777;52.254;9.618;2024-02-28T08:20:46;2.70;99.90
15355;DHT22;7777;52.254;9.618;2024-02-28T08:23:11;2.70;99.90
15355;DHT22;7777;52.254;9.618;2024-02-28T08:25:37;2.80;99.90
15355;DHT22;7777;52.254;9.618;2024-02-28T08:28:03;2.80;99.90
15355;DHT22;7777;52.254;9.618;2024-02-28T08:30:29;2.90;99.90
15355;DHT22;7777;52.254;9.618;2024-02-28T08:32:56;2.90;99.90
15355;DHT22;7777;52.254;9.618;2024-02-28T08:35:23;3.00;99.90
15355;DHT22;7777;52.254;9.618;2024-02-28T08:37:49;3.10;99.90
15355;DHT22;7777;52.254;9.618;2024-02-28T08:40:15;3.10;99.90
15355;DHT22;7777;52.254;9.618;2024-02-28T08:42:41;3.20;99.90
15355;DHT22;7777;52.254;9.618;2024-02-28T08:45:07;3.20;99.90
15355;DHT22;7777;52.254;9.618;2024-02-28T08:47:33;3.30;99.90
15355;DHT22;7777;52.254;9.618;2024-02-28T08:49:59;3.30;99.90
15355;DHT22;7777;52.254;9.618;2024-02-28T08:52:25;3.40;99.90
15355;DHT22;7777;52.254;9.618;2024-02-28T08:54:51;3.40;99.90
15355;DHT22;7777;52.254;9.618;2024-02-28T08:57:18;3.50;99.90
15355;DHT22;7777;52.254;9.618;2024-02-28T08:59:47;3.50;99.90
15355;DHT22;7777;52.254;9.618;2024-02-28T09:02:13;3.60;99.90
15355;DHT22;7777;52.254;9.618;2024-02-28T09:04:39;3.60;99.90
15355;DHT22;7777;52.254;9.618;2024-02-28T09:07:05;3.70;99.90
15355;DHT22;7777;52.254;9.618;2024-02-28T09:09:30;3.70;99.90
15355;DHT22;7777;52.254;9.618;2024-02-28T09:12:00;3.80;99.90
15355;DHT22;7777;52.254;9.618;2024-02-28T09:14:27;3.80;99.90
15355;DHT22;7777;52.254;9.618;2024-02-28T09:16:55;3.90;99.90
15355;DHT22;7777;52.254;9.618;2024-02-28T09:19:29;3.90;99.90
15355;DHT22;7777;52.254;9.618;2024-02-28T09:21:55;3.90;99.90
15355;DHT22;7777;52.254;9.618;2024-02-28T09:24:21;4.00;99.90
15355;DHT22;7777;52.254;9.618;2024-02-28T09:26:46;4.00;99.90
15355;DHT22;7777;52.254;9.618;2024-02-28T09:29:12;4.10;99.90
15355;DHT22;7777;52.254;9.618;2024-02-28T09:31:38;4.10;99.90
15355;DHT22;7777;52.254;9.618;2024-02-28T09:34:04;4.20;99.90
15355;DHT22;7777;52.254;9.618;2024-02-28T09:36:38;4.20;99.90
15355;DHT22;7777;52.254;9.618;2024-02-28T09:39:05;4.20;99.90
15355;DHT22;7777;52.254;9.618;2024-02-28T09:41:31;4.30;99.90
15355;DHT22;7777;52.254;9.618;2024-02-28T09:43:57;4.30;99.90
15355;DHT22;7777;52.254;9.618;2024-02-28T09:46:23;4.30;99.90
15355;DHT22;7777;52.254;9.618;2024-02-28T09:48:50;4.30;99.90
15355;DHT22;7777;52.254;9.618;2024-02-28T09:51:18;4.40;99.90
15355;DHT22;7777;52.254;9.618;2024-02-28T09:53:47;4.30;99.90
15355;DHT22;7777;52.254;9.618;2024-02-28T09:56:13;4.40;99.90
15355;DHT22;7777;52.254;9.618;2024-02-28T09:58:41;4.40;99.90
15355;DHT22;7777;52.254;9.618;2024-02-28T10:01:08;4.40;99.90
15355;DHT22;7777;52.254;9.618;2024-02-28T10:03:36;4.40;99.90
15355;DHT22;7777;52.254;9.618;2024-02-28T10:06:03;4.40;99.90
15355;DHT22;7777;52.254;9.618;2024-02-28T10:08:29;4.50;99.90
15355;DHT22;7777;52.254;9.618;2024-02-28T10:10:55;4.50;99.90
15355;DHT22;7777;52.254;9.618;2024-02-28T10:13:22;4.60;99.90
15355;DHT22;7777;52.254;9.618;2024-02-28T10:15:49;4.60;99.90
15355;DHT22;7777;52.254;9.618;2024-02-28T10:18:15;4.60;99.90
15355;DHT22;7777;52.254;9.618;2024-02-28T10:20:41;4.70;99.90
15355;DHT22;7777;52.254;9.618;2024-02-28T10:23:09;4.80;99.90
15355;DHT22;7777;52.254;9.618;2024-02-28T10:25:47;4.90;99.90
15355;DHT22;7777;52.254;9.618;2024-02-28T10:28:14;4.90;99.90
15355;DHT22;7777;52.254;9.618;2024-02-28T10:30:41;5.00;99.90
15355;DHT22;7777;52.254;9.618;2024-02-28T10:33:14;5.10;99.90
15355;DHT22;7777;52.254;9.618;2024-02-28T10:35:42;5.10;99.90
15355;DHT22;7777;52.254;9.618;2024-02-28T10:38:10;5.10;99.90
15355;DHT22;7777;52.254;9.618;2024-02-28T10:40:37;5.10;99.90
15355;DHT22;7777;52.254;9.618;2024-02-28T10:43:05;5.20;99.90
15355;DHT22;7777;52.254;9.618;2024-02-28T10:45:36;5.20;99.90
15355;DHT22;7777;52.254;9.618;2024-02-28T10:48:04;5.20;99.90
15355;DHT22;7777;52.254;9.618;2024-02-28T10:50:31;5.20;99.90
15355;DHT22;7777;52.254;9.618;2024-02-28T10:53:01;5.20;99.90
15355;DHT22;7777;52.254;9.618;2024-02-28T10:55:36;5.20;99.90
15355;DHT22;7777;52.254;9.618;2024-02-28T10:58:09;5.20;99.90
15355;DHT22;7777;52.254;9.618;2024-02-28T11:00:38;5.20;99.90
15355;DHT22;7777;52.254;9.618;2024-02-28T11:03:05;5.30;99.90
15355;DHT22;7777;52.254;9.618;2024-02-28T11:05:38;5.30;99.90
15355;DHT22;7777;52.254;9.618;2024-02-28T11:08:11;5.30;99.90
15355;DHT22;7777;52.254;9.618;2024-02-28T11:10:41;5.30;99.90
15355;DHT22;7777;52.254;9.618;2024-02-28T11:13:21;5.30;99.90
15355;DHT22;7777;52.254;9.618;2024-02-28T11:15:48;5.30;99.90
15355;DHT22;7777;52.254;9.618;2024-02-28T11:18:13;5.40;99.90
15355;DHT22;7777;52.254;9.618;2024-02-28T11:20:39;5.40;99.90
15355;DHT22;7777;52.254;9.618;2024-02-28T11:23:09;5.40;99.90
15355;DHT22;7777;52.254;9.618;2024-02-28T11:25:36;5.40;99.90
15355;DHT22;7777;52.254;9.618;2024-02-28T11:28:02;5.50;99.90
15355;DHT22;7777;52.254;9.618;2024-02-28T11:30:29;5.50;99.90
15355;DHT22;7777;52.254;9.618;2024-02-28T11:32:55;5.50;99.90
15355;DHT22;7777;52.254;9.618;2024-02-28T11:35:24;5.50;99.90
15355;DHT22;7777;52.254;9.618;2024-02-28T11:37:50;5.60;99.90
15355;DHT22;7777;52.254;9.618;2024-02-28T11:40:19;5.70;99.90
15355;DHT22;7777;52.254;9.618;2024-02-28T11:42:44;5.70;99.90
15355;DHT22;7777;52.254;9.618;2024-02-28T11:45:10;5.70;99.90
15355;DHT22;7777;52.254;9.618;2024-02-28T11:47:36;5.70;99.90
15355;DHT22;7777;52.254;9.618;2024-02-28T11:50:03;5.70;99.90
15355;DHT22;7777;52.254;9.618;2024-02-28T11:52:33;5.80;99.90
15355;DHT22;7777;52.254;9.618;2024-02-28T11:54:59;5.80;99.90
15355;DHT22;7777;52.254;9.618;2024-02-28T11:57:26;5.90;99.90
15355;DHT22;7777;52.254;9.618;2024-02-28T11:59:51;5.90;99.90
15355;DHT22;7777;52.254;9.618;2024-02-28T12:02:18;6.00;99.90
15355;DHT22;7777;52.254;9.618;2024-02-28T12:04:45;6.00;99.90
15355;DHT22;7777;52.254;9.618;2024-02-28T12:07:11;6.00;99.90
15355;DHT22;7777;52.254;9.618;2024-02-28T12:09:37;6.00;99.90
15355;DHT22;7777;52.254;9.618;2024-02-28T12:12:06;6.10;99.90
15355;DHT22;7777;52.254;9.618;2024-02-28T12:14:35;6.10;99.90
15355;DHT22;7777;52.254;9.618;2024-02-28T12:17:04;6.20;99.90
15355;DHT22;7777;52.254;9.618;2024-02-28T12:19:29;6.20;99.90
15355;DHT22;7777;52.254;9.618;2024-02-28T12:21:56;6.30;99.90
15355;DHT22;7777;52.254;9.618;2024-02-28T12:24:22;6.40;99.90
15355;DHT22;7777;52.254;9.618;2024-02-28T12:26:48;6.50;99.90
15355;DHT22;7777;52.254;9.618;2024-02-28T12:29:14;6.60;99.90
15355;DHT22;7777;52.254;9.618;2024-02-28T12:31:40;6.70;99.90
15355;DHT22;7777;52.254;9.618;2024-02-28T12:34:06;6.80;99.90
15355;DHT22;7777;52.254;9.618;2024-02-28T12:36:32;6.80;99.90
15355;DHT22;7777;52.254;9.618;2024-02-28T12:38:59;6.90;99.90
15355;DHT22;7777;52.254;9.618;2024-02-28T12:41:26;7.00;99.90
15355;DHT22;7777;52.254;9.618;2024-02-28T12:43:52;7.10;99.90
15355;DHT22;7777;52.254;9.618;2024-02-28T12:46:18;7.20;99.90
15355;DHT22;7777;52.254;9.618;2024-02-28T12:48:44;7.30;99.90
15355;DHT22;7777;52.254;9.618;2024-02-28T12:51:35;7.30;99.90
15355;DHT22;7777;52.254;9.618;2024-02-28T12:54:12;7.40;99.90
15355;DHT22;7777;52.254;9.618;2024-02-28T12:56:40;7.50;99.90
15355;DHT22;7777;52.254;9.618;2024-02-28T12:59:08;7.60;99.90
15355;DHT22;7777;52.254;9.618;2024-02-28T13:01:34;7.60;99.90
15355;DHT22;7777;52.254;9.618;2024-02-28T13:04:00;7.70;99.90
15355;DHT22;7777;52.254;9.618;2024-02-28T13:06:26;7.80;99.90
15355;DHT22;7777;52.254;9.618;2024-02-28T13:08:52;7.90;99.90
15355;DHT22;7777;52.254;9.618;2024-02-28T13:11:19;8.00;99.90
15355;DHT22;7777;52.254;9.618;2024-02-28T13:13:50;8.00;99.90
15355;DHT22;7777;52.254;9.618;2024-02-28T13:16:17;8.10;99.90
15355;DHT22;7777;52.254;9.618;2024-02-28T13:18:43;8.20;99.90
15355;DHT22;7777;52.254;9.618;2024-02-28T13:21:10;8.30;99.90
15355;DHT22;7777;52.254;9.618;2024-02-28T13:23:36;8.40;99.90
15355;DHT22;7777;52.254;9.618;2024-02-28T13:26:05;8.50;99.90
15355;DHT22;7777;52.254;9.618;2024-02-28T13:28:33;8.50;99.90
15355;DHT22;7777;52.254;9.618;2024-02-28T13:31:02;8.60;99.90
15355;DHT22;7777;52.254;9.618;2024-02-28T13:33:31;8.70;99.90
15355;DHT22;7777;52.254;9.618;2024-02-28T13:35:57;8.80;99.90
15355;DHT22;7777;52.254;9.618;2024-02-28T13:38:23;8.80;99.90
15355;DHT22;7777;52.254;9.618;2024-02-28T13:40:49;8.90;99.90
15355;DHT22;7777;52.254;9.618;2024-02-28T13:43:15;8.90;99.90
15355;DHT22;7777;52.254;9.618;2024-02-28T13:45:47;9.00;99.90
15355;DHT22;7777;52.254;9.618;2024-02-28T13:48:22;9.00;99.90
15355;DHT22;7777;52.254;9.618;2024-02-28T13:50:50;9.00;99.90
15355;DHT22;7777;52.254;9.618;2024-02-28T13:53:16;9.00;99.90
15355;DHT22;7777;52.254;9.618;2024-02-28T13:55:43;9.00;99.90
15355;DHT22;7777;52.254;9.618;2024-02-28T13:58:11;9.00;99.90
15355;DHT22;7777;52.254;9.618;2024-02-28T14:00:38;8.90;99.90
15355;DHT22;7777;52.254;9.618;2024-02-28T14:03:05;8.90;99.90
15355;DHT22;7777;52.254;9.618;2024-02-28T14:05:34;8.90;99.90
15355;DHT22;7777;52.254;9.618;2024-02-28T14:08:00;8.90;99.90
15355;DHT22;7777;52.254;9.618;2024-02-28T14:10:26;8.90;99.90
15355;DHT22;7777;52.254;9.618;2024-02-28T14:12:52;8.90;99.90
15355;DHT22;7777;52.254;9.618;2024-02-28T14:15:18;8.90;99.90
15355;DHT22;7777;52.254;9.618;2024-02-28T14:17:45;8.90;99.90
15355;DHT22;7777;52.254;9.618;2024-02-28T14:20:11;8.90;99.90
15355;DHT22;7777;52.254;9.618;2024-02-28T14:22:38;8.90;99.90
15355;DHT22;7777;52.254;9.618;2024-02-28T14:25:11;8.80;99.90
15355;DHT22;7777;52.254;9.618;2024-02-28T14:27:37;8.90;99.90
15355;DHT22;7777;52.254;9.618;2024-02-28T14:30:05;8.90;99.90
15355;DHT22;7777;52.254;9.618;2024-02-28T14:32:34;8.90;99.90
15355;DHT22;7777;52.254;9.618;2024-02-28T14:35:02;8.90;99.90
15355;DHT22;7777;52.254;9.618;2024-02-28T14:37:30;8.90;99.90
15355;DHT22;7777;52.254;9.618;2024-02-28T14:39:56;8.90;99.90
15355;DHT22;7777;52.254;9.618;2024-02-28T14:42:22;9.00;99.90
15355;DHT22;7777;52.254;9.618;2024-02-28T14:44:48;9.00;99.90
15355;DHT22;7777;52.254;9.618;2024-02-28T14:47:14;9.00;99.90
15355;DHT22;7777;52.254;9.618;2024-02-28T14:49:40;9.00;99.90
15355;DHT22;7777;52.254;9.618;2024-02-28T14:52:06;9.00;99.90
15355;DHT22;7777;52.254;9.618;2024-02-28T14:54:31;9.00;99.90
15355;DHT22;7777;52.254;9.618;2024-02-28T14:56:57;8.90;99.90
15355;DHT22;7777;52.254;9.618;2024-02-28T14:59:23;8.90;99.90
15355;DHT22;7777;52.254;9.618;2024-02-28T15:01:49;8.90;99.90
15355;DHT22;7777;52.254;9.618;2024-02-28T15:04:15;8.90;99.90
15355;DHT22;7777;52.254;9.618;2024-02-28T15:06:41;8.90;99.90
15355;DHT22;7777;52.254;9.618;2024-02-28T15:09:08;8.90;99.90
15355;DHT22;7777;52.254;9.618;2024-02-28T15:11:35;8.80;99.90
15355;DHT22;7777;52.254;9.618;2024-02-28T15:14:01;8.80;99.90
15355;DHT22;7777;52.254;9.618;2024-02-28T15:16:28;8.80;99.90
15355;DHT22;7777;52.254;9.618;2024-02-28T15:18:53;8.80;99.90
15355;DHT22;7777;52.254;9.618;2024-02-28T15:21:20;8.80;99.90
15355;DHT22;7777;52.254;9.618;2024-02-28T15:23:46;8.70;99.90
15355;DHT22;7777;52.254;9.618;2024-02-28T15:26:14;8.70;99.90
15355;DHT22;7777;52.254;9.618;2024-02-28T15:28:39;8.70;99.90
15355;DHT22;7777;52.254;9.618;2024-02-28T15:31:05;8.60;99.90
15355;DHT22;7777;52.254;9.618;2024-02-28T15:33:31;8.60;99.90
15355;DHT22;7777;52.254;9.618;2024-02-28T15:35:57;8.60;99.90
15355;DHT22;7777;52.254;9.618;2024-02-28T15:38:23;8.60;99.90
15355;DHT22;7777;52.254;9.618;2024-02-28T15:40:49;8.60;99.90
15355;DHT22;7777;52.254;9.618;2024-02-28T15:43:14;8.50;99.90
15355;DHT22;7777;52.254;9.618;2024-02-28T15:45:40;8.50;99.90
15355;DHT22;7777;52.254;9.618;2024-02-28T15:48:09;8.50;99.90
15355;DHT22;7777;52.254;9.618;2024-02-28T15:50:36;8.50;99.90
15355;DHT22;7777;52.254;9.618;2024-02-28T15:53:02;8.50;99.90
15355;DHT22;7777;52.254;9.618;2024-02-28T15:55:29;8.50;99.90
15355;DHT22;7777;52.254;9.618;2024-02-28T15:57:55;8.40;99.90